Pagrindinis puslapis
METAR-TAF:

METAR-TAF

Oro uostai :

Veiko sala, Jungtinės Amerikos Valstijos

platuma: 19-17N, ilguma: 166-39E, Aukštis: 4 m

Dabartinis oras

Ataskaita buvo paskelbta 1 valandą ir 2 minutes, ne 03:58 UTC
Vėjas 9 kt iš Rytų/Pietryčių
Temperatūra 32°C
Drėgmė 67%
Slėgis 1012 hPa
Matomumas 10 km arba daugiau
Giedras dangus

METAR: PWAK 180358Z AUTO 11009KT 9999 CLR 32/25 A2988 RMK AO2 SLP125 T03230247 $

Laikas: 17:00 (05:00 UTC)

Prognozė

Ataskaita buvo paskelbta 6 valandos ir 55 minutes, ne 22:05 UTC
Prognozė galioja nuo 17 metu 22 UTC su 19 metu 04 UTC
Vėjas 9 kt iš Rytų/Pietryčių
Matomumas 10 km arba daugiau
Mažai debesys ne aukštis 2000 ft

TAF: PWAK 172205Z 1722/1904 12009KT 9999 FEW020 QNH2985INS TX34/1804Z TN27/1816Z FOR MIL USE ONLY

Orai ataskaitas ir orų prognozės (METAR, TAF).

turimą stotys yra geltonos ir raudonos taškus žemėlapyje.

Perkelti pele per norėdami pamatyti stoties vardą.

Tada spustelėkite, norėdami matyti oro stebėjimo ir prognozės.

Norėdami pakeisti žemėlapį: spustelėkite ant žalios mygtukų su juodo kryžiaus žemyn,; žalią mygtuką su brūkšneliu, jei norite nutolinti; arba žalių rodyklių gretimoms žemėlapius.


METAR-TAF: